Main page
METAR-TAF:

METAR-TAF

Airports :

Bujumbura, Burundi

Bujumbura International Airport

latitude: 03-19S, longitude: 029-19E, elevation: 782 m

METAR: missing

Time: 09:29 (07:29 UTC)

Forecast

The report was made 4 hours and 29 minutes ago, at 03:00 UTC
Forecast valid from 26 at 06 UTC to 27 at 12 UTC
Wind 12 kt from the South with gusts up to 22 kt
Visibility 10 km or more
Few clouds at a height of 3000 ft
Scattered clouds at a height of 10000 ft
Few clouds at a height of 3500 ft
From 26 at 1800 UTC
Wind 10 kt from the South with gusts up to 20 kt
Visibility 10 km or more
Few clouds at a height of 3000 ft
Scattered clouds at a height of 10000 ft

TAF: HBBA 260300Z 2606/2712 03004KT 9999 FEW030 SCT100 BECMG2608/2610 18012G22KT 9999 FEW035 FM261800 00000KT CAVOK BECMG2707/2709 18010G20KT 9999 FEW030 SCT100

Weather observations and forecasts of more than 4000 airports (METAR and TAF reports).

The available stations are represented by yellow and red dots on the map.

Hover mouse over dot to see the name of the station.

Then click to see weather observations and forecasts.

To change the map : click on the green buttons with a black cross to zoom in, on the green button with a dash to zoom out, or on the green arrows for adjacent maps.


METAR-TAF: